Time;durP1;ratioP1;P1;durP2;ratioP2;P2;SDS_P1;SDS_P2;PMS_P1;PMS_P2;Temp;Humidity;BMP_temperature;BMP_pressure;BME280_temperature;BME280_humidity;BME280_pressure;Samples;Min_cycle;Max_cycle;Signal;HPM_P1;HPM_P2
2022/06/22 00:02:13;;;;;;;9.37;8.50;;;;;;;22.17;75.58;157067.31;5011021;28;20456;-76
2022/06/22 00:04:44;;;;;;;9.70;8.80;;;;;;;22.16;75.03;157063.41;5029207;28;20544;-76
2022/06/22 00:07:14;;;;;;;8.83;8.13;;;;;;;22.16;76.14;157063.41;5012062;28;20484;-76
2022/06/22 00:09:42;;;;;;;8.20;7.50;;;;;;;22.19;76.40;157071.22;5012216;28;20532;-76
2022/06/22 00:12:19;;;;;;;9.30;8.40;;;;;;;22.15;76.64;157060.78;5011524;28;20919;-74
2022/06/22 00:14:49;;;;;;;9.20;8.37;;;;;;;22.14;76.71;157058.16;5013680;28;20536;-77
2022/06/22 00:17:19;;;;;;;8.90;8.20;;;;;;;22.12;77.22;157052.94;5012794;28;20515;-76
2022/06/22 00:19:48;;;;;;;9.07;8.20;;;;;;;22.11;77.17;157051.63;5014604;28;20452;-83
2022/06/22 00:22:18;;;;;;;9.53;8.73;;;;;;;22.11;76.98;157050.31;5015716;28;20463;-83
2022/06/22 00:24:45;;;;;;;10.03;9.00;;;;;;;22.08;77.37;157042.53;5029777;28;20539;-83
2022/06/22 00:27:19;;;;;;;9.80;8.90;;;;;;;22.04;77.19;157033.38;5000898;28;20517;-83
2022/06/22 00:29:47;;;;;;;9.43;8.67;;;;;;;21.99;76.93;157019.00;4997512;28;20453;-83
2022/06/22 00:32:18;;;;;;;9.93;9.03;;;;;;;21.97;78.81;157013.78;5014687;28;20465;-83
2022/06/22 00:34:45;;;;;;;10.00;8.97;;;;;;;21.93;77.93;157003.31;5014357;28;20459;-83
2022/06/22 00:37:17;;;;;;;9.80;8.90;;;;;;;21.93;78.17;157003.31;5029995;28;20560;-83
2022/06/22 00:39:45;;;;;;;10.07;9.17;;;;;;;21.92;77.84;157000.72;5014648;28;20491;-83
2022/06/22 00:42:28;;;;;;;10.70;9.40;;;;;;;21.87;78.90;156987.69;5014177;28;20552;-82
2022/06/22 00:44:59;;;;;;;9.67;8.77;;;;;;;21.84;78.92;156982.38;5030023;28;20543;-83
2022/06/22 00:47:29;;;;;;;8.87;8.07;;;;;;;21.80;78.97;156971.94;5014456;28;20537;-83
2022/06/22 00:50:00;;;;;;;9.17;8.47;;;;;;;21.79;79.35;156968.00;5029526;28;20473;-83
2022/06/22 00:52:35;;;;;;;9.37;8.67;;;;;;;21.73;80.10;156953.69;5026309;28;20540;-83
2022/06/22 00:55:03;;;;;;;9.80;8.83;;;;;;;21.73;80.33;156952.38;5013427;28;20927;-83
2022/06/22 00:57:35;;;;;;;9.83;9.10;;;;;;;21.72;80.44;156951.06;5012781;28;20499;-82
2022/06/22 01:00:06;;;;;;;10.43;9.43;;;;;;;21.73;81.42;156953.69;5014542;28;20520;-83
2022/06/22 01:02:38;;;;;;;8.70;8.00;;;;;;;21.76;81.05;156961.47;5028910;28;20935;-81
2022/06/22 01:05:16;;;;;;;9.70;8.90;;;;;;;21.73;81.90;156953.69;5029358;28;20451;-82
2022/06/22 01:07:49;;;;;;;9.20;8.40;;;;;;;21.67;81.83;156938.00;5013851;28;20468;-83
2022/06/22 01:10:24;;;;;;;10.57;9.67;;;;;;;21.63;81.92;156926.28;5018446;28;20449;-83
2022/06/22 01:12:53;;;;;;;9.47;8.77;;;;;;;21.59;81.91;156917.13;5029266;28;20455;-83
2022/06/22 01:15:25;;;;;;;10.57;9.70;;;;;;;21.56;82.16;156909.28;5012687;28;20553;-83
2022/06/22 01:17:58;;;;;;;10.07;9.20;;;;;;;21.58;82.79;156914.47;5013784;28;20539;-83
2022/06/22 01:20:33;;;;;;;10.53;9.53;;;;;;;21.56;83.47;156907.97;5029102;28;20484;-81
2022/06/22 01:23:14;;;;;;;11.20;10.10;;;;;;;21.57;83.09;156910.59;5029227;28;20487;-83
2022/06/22 01:25:52;;;;;;;11.00;10.07;;;;;;;21.53;84.07;156901.44;5027796;28;20464;-82
2022/06/22 01:28:20;;;;;;;10.30;9.40;;;;;;;21.52;84.44;156898.84;5028938;28;21029;-83
2022/06/22 01:30:51;;;;;;;10.87;9.87;;;;;;;21.52;86.09;156898.84;5009432;28;20584;-83
2022/06/22 01:33:22;;;;;;;10.90;9.80;;;;;;;21.48;85.13;156888.38;5012713;28;20448;-82
2022/06/22 01:35:51;;;;;;;10.83;9.67;;;;;;;21.40;85.82;156867.50;5005492;28;20498;-82
2022/06/22 01:38:23;;;;;;;11.17;10.20;;;;;;;21.38;85.14;156862.28;5006399;28;20441;-82
2022/06/22 01:41:00;;;;;;;10.27;9.27;;;;;;;21.40;85.08;156867.50;5005543;28;20465;-83
2022/06/22 01:43:31;;;;;;;10.53;9.43;;;;;;;21.41;84.90;156870.13;5004581;28;20544;-82
2022/06/22 01:46:03;;;;;;;10.17;9.27;;;;;;;21.39;85.44;156864.91;5012683;28;20463;-82
2022/06/22 01:48:33;;;;;;;9.97;9.17;;;;;;;21.37;85.35;156859.66;5028848;28;20492;-82
2022/06/22 01:51:04;;;;;;;10.93;9.87;;;;;;;21.32;85.83;156846.63;5011623;28;20456;-82
2022/06/22 01:53:34;;;;;;;11.40;10.23;;;;;;;21.25;87.26;156828.34;5028539;28;20457;-82
2022/06/22 01:56:06;;;;;;;11.00;10.10;;;;;;;21.22;87.59;156820.53;5028617;28;20511;-82
2022/06/22 01:58:48;;;;;;;13.17;10.10;;;;;;;21.22;87.41;156821.84;5011525;28;20607;-82
2022/06/22 02:01:19;;;;;;;10.30;9.43;;;;;;;21.24;86.70;156827.03;5010088;28;20571;-82
2022/06/22 02:03:51;;;;;;;11.40;10.30;;;;;;;21.26;87.05;156830.94;5013225;28;20527;-82
2022/06/22 02:09:10;;;;;;;10.53;9.50;;;;;;;21.30;86.98;156840.09;5010029;28;20857;-83
2022/06/22 02:11:40;;;;;;;10.87;9.80;;;;;;;21.34;86.43;156851.81;5013072;28;20457;-82
2022/06/22 02:14:13;;;;;;;12.00;10.90;;;;;;;21.33;86.50;156849.25;5011969;28;20528;-83
2022/06/22 02:16:47;;;;;;;12.07;10.87;;;;;;;21.41;86.43;156868.81;5027361;28;20456;-82
2022/06/22 02:19:15;;;;;;;11.00;9.90;;;;;;;21.44;86.25;156877.97;5013207;28;20448;-82
2022/06/22 02:21:44;;;;;;;11.33;10.23;;;;;;;21.32;86.93;156846.63;5012845;28;20840;-82
2022/06/22 02:24:21;;;;;;;12.13;10.83;;;;;;;21.24;87.51;156825.72;5028428;28;20544;-82
2022/06/22 02:26:51;;;;;;;11.70;10.60;;;;;;;21.25;87.60;156828.34;5028461;28;20503;-82
2022/06/22 02:29:21;;;;;;;10.20;9.20;;;;;;;21.26;87.94;156830.94;5028378;28;20449;-82
2022/06/22 02:31:48;;;;;;;10.73;9.83;;;;;;;21.25;87.98;156828.34;5011384;28;20935;-82
2022/06/22 02:34:17;;;;;;;10.87;9.97;;;;;;;21.28;87.86;156836.19;5024564;28;20551;-82
2022/06/22 02:36:47;;;;;;;10.67;9.60;;;;;;;21.29;87.55;156837.50;5028359;28;20563;-82
2022/06/22 02:39:14;;;;;;;11.17;10.07;;;;;;;21.32;87.39;156846.63;4997177;28;20456;-82
2022/06/22 02:44:33;;;;;;;11.27;10.20;;;;;;;21.36;87.83;156855.75;5013033;28;20432;-82
2022/06/22 02:47:12;;;;;;;12.10;10.90;;;;;;;21.38;88.81;156862.28;5027951;28;20530;-82
2022/06/22 02:49:42;;;;;;;11.60;10.50;;;;;;;21.26;90.89;156830.94;5011989;28;20468;-82
2022/06/22 02:52:12;;;;;;;11.23;10.20;;;;;;;21.21;92.78;156819.22;5016684;28;20488;-82
2022/06/22 02:54:43;;;;;;;12.60;11.50;;;;;;;21.14;93.20;156799.63;5029493;28;20842;-82
2022/06/22 02:57:18;;;;;;;11.80;10.60;;;;;;;21.11;92.66;156791.81;5032092;28;20460;-82
2022/06/22 02:59:47;;;;;;;12.13;11.00;;;;;;;21.11;92.87;156791.81;5014007;28;20582;-82
2022/06/22 03:02:14;;;;;;;11.83;10.83;;;;;;;21.11;93.16;156791.81;5031601;28;20487;-82
2022/06/22 03:04:41;;;;;;;11.33;10.40;;;;;;;21.31;93.58;156842.72;5014922;28;20452;-81
2022/06/22 03:07:08;;;;;;;11.70;10.70;;;;;;;21.14;92.19;156800.94;5031634;28;20515;-82
2022/06/22 03:09:36;;;;;;;11.70;10.70;;;;;;;21.01;93.27;156766.97;5030226;28;20456;-82
2022/06/22 03:12:04;;;;;;;12.53;11.43;;;;;;;20.93;96.33;156746.09;5035382;28;20985;-82
2022/06/22 03:14:33;;;;;;;12.57;11.37;;;;;;;20.93;95.73;156744.78;5015023;28;20535;-82
2022/06/22 03:17:05;;;;;;;12.03;10.33;;;;;;;20.94;95.95;156747.41;5016465;28;20452;-82
2022/06/22 03:19:37;;;;;;;11.40;10.50;;;;;;;20.93;96.54;156744.78;5015683;28;20456;-82
2022/06/22 03:22:04;;;;;;;13.20;11.80;;;;;;;20.95;96.23;156750.00;5026494;28;20544;-82
2022/06/22 03:24:37;;;;;;;12.50;11.40;;;;;;;20.93;96.44;156744.78;5004742;28;20851;-82
2022/06/22 03:27:08;;;;;;;12.90;11.53;;;;;;;20.89;96.55;156734.38;5013879;28;20547;-82
2022/06/22 03:29:38;;;;;;;11.87;10.83;;;;;;;20.90;96.20;156736.94;5015485;28;20433;-82
2022/06/22 03:32:09;;;;;;;12.90;11.80;;;;;;;20.92;95.38;156742.16;5016598;28;20452;-83
2022/06/22 03:34:39;;;;;;;12.53;11.30;;;;;;;20.96;94.81;156752.63;5018774;28;20445;-82
2022/06/22 03:37:11;;;;;;;11.67;10.50;;;;;;;20.96;95.04;156752.63;5031145;28;20459;-83
2022/06/22 03:39:43;;;;;;;12.00;11.00;;;;;;;20.98;94.72;156757.81;5014261;28;20436;-82
2022/06/22 03:42:13;;;;;;;12.37;11.17;;;;;;;20.93;95.05;156744.78;5015253;28;20903;-82
2022/06/22 03:44:46;;;;;;;13.57;12.20;;;;;;;20.88;95.40;156731.75;5014378;28;20437;-83
2022/06/22 03:47:17;;;;;;;14.37;12.87;;;;;;;20.85;96.29;156723.91;5030422;28;20464;-82
2022/06/22 03:49:47;;;;;;;13.60;12.40;;;;;;;20.74;97.43;156696.50;5014951;28;20488;-82
2022/06/22 03:52:16;;;;;;;14.57;13.07;;;;;;;20.69;97.97;156682.16;5027270;28;20556;-82
2022/06/22 03:54:46;;;;;;;13.83;12.60;;;;;;;20.69;98.13;156683.47;5005380;28;20486;-83
2022/06/22 03:57:15;;;;;;;12.53;11.40;;;;;;;20.69;98.73;156682.16;5015052;28;20919;-82
2022/06/22 03:59:45;;;;;;;13.73;12.33;;;;;;;20.72;98.70;156689.97;5029978;28;20512;-82
2022/06/22 04:02:17;;;;;;;13.03;11.90;;;;;;;20.76;98.47;156700.44;5030687;28;20970;-82
2022/06/22 04:04:43;;;;;;;14.83;12.40;;;;;;;20.76;100.00;156701.72;5015099;28;20797;-82
2022/06/22 04:07:13;;;;;;;13.30;12.00;;;;;;;20.71;99.81;156687.34;5001096;28;20548;-82
2022/06/22 04:09:44;;;;;;;12.50;11.30;;;;;;;20.69;100.00;156682.16;5003434;28;20449;-82
2022/06/22 04:12:15;;;;;;;11.60;10.70;;;;;;;20.76;99.99;156701.72;5030669;28;20963;-82
2022/06/22 04:14:46;;;;;;;13.27;12.10;;;;;;;20.88;99.53;156731.75;5015345;28;20439;-82
2022/06/22 04:17:34;;;;;;;14.00;12.80;;;;;;;21.00;99.02;156764.34;5030336;28;20457;-83
2022/06/22 04:20:06;;;;;;;14.77;12.70;;;;;;;21.10;98.41;156790.50;5000973;28;20503;-82
2022/06/22 04:22:34;;;;;;;13.33;12.03;;;;;;;21.16;98.65;156804.84;5029475;28;20523;-82
2022/06/22 04:25:04;;;;;;;14.23;13.00;;;;;;;21.16;98.34;156804.84;5013048;28;21178;-82
2022/06/22 04:27:35;;;;;;;14.10;12.80;;;;;;;21.17;98.04;156807.47;5027850;28;20472;-82
2022/06/22 04:30:06;;;;;;;12.70;11.57;;;;;;;21.19;98.18;156814.00;5004840;28;20441;-82
2022/06/22 04:32:38;;;;;;;13.37;12.17;;;;;;;21.20;97.93;156815.31;5014846;28;20457;-81
2022/06/22 04:35:26;;;;;;;13.90;12.70;;;;;;;21.10;97.96;156789.22;5013786;28;20477;-82
2022/06/22 04:37:56;;;;;;;13.60;12.30;;;;;;;21.13;98.77;156798.31;5010385;28;20445;-82
2022/06/22 04:40:27;;;;;;;13.37;12.07;;;;;;;21.15;98.23;156802.25;5018427;28;20449;-82
2022/06/22 04:43:11;;;;;;;13.43;12.13;;;;;;;21.16;98.25;156806.16;5014621;28;20499;-82
2022/06/22 04:45:40;;;;;;;13.23;12.00;;;;;;;21.15;97.22;156803.53;5014296;28;20452;-81
2022/06/22 04:48:16;;;;;;;14.40;13.20;;;;;;;21.19;95.39;156814.00;5014433;28;20571;-82
2022/06/22 04:50:45;;;;;;;13.07;11.73;;;;;;;21.21;95.15;156819.22;5028465;28;20467;-82
2022/06/22 04:53:19;;;;;;;13.83;12.73;;;;;;;21.23;93.22;156823.16;5025041;28;20916;-82
2022/06/22 04:55:46;;;;;;;13.03;11.90;;;;;;;21.22;93.32;156820.53;5013506;28;20789;-82
2022/06/22 04:58:36;;;;;;;16.93;13.00;;;;;;;21.18;93.48;156811.38;5029466;28;20558;-82
2022/06/22 05:01:04;;;;;;;13.73;12.57;;;;;;;21.21;92.41;156817.91;5007416;28;20510;-82
2022/06/22 05:03:34;;;;;;;16.47;13.37;;;;;;;21.12;92.52;156795.75;5013873;28;20824;-82
2022/06/22 05:06:06;;;;;;;16.33;11.93;;;;;;;21.09;92.91;156787.91;5013680;28;20539;-82
2022/06/22 05:08:37;;;;;;;13.03;11.93;;;;;;;21.14;92.78;156800.94;5009682;28;20473;-82
2022/06/22 05:11:12;;;;;;;13.47;12.13;;;;;;;21.19;90.54;156812.69;5018751;28;20485;-82
2022/06/22 05:13:42;;;;;;;15.63;12.80;;;;;;;21.20;90.56;156816.63;5012756;28;20823;-81
2022/06/22 05:16:14;;;;;;;13.97;12.60;;;;;;;21.22;89.96;156820.53;5007097;28;20488;-82
2022/06/22 05:18:44;;;;;;;13.57;12.37;;;;;;;21.24;91.46;156827.03;5020534;28;20475;-82
2022/06/22 05:21:16;;;;;;;15.17;13.57;;;;;;;21.24;91.42;156827.03;5012317;28;20535;-82
2022/06/22 05:23:46;;;;;;;13.20;11.90;;;;;;;21.27;91.60;156832.25;5029128;28;20804;-82
2022/06/22 05:26:13;;;;;;;14.37;12.67;;;;;;;21.32;91.36;156845.31;5014901;28;20456;-82
2022/06/22 05:28:42;;;;;;;12.53;11.33;;;;;;;21.45;90.95;156880.53;5016484;28;20563;-82
2022/06/22 05:31:12;;;;;;;13.20;12.10;;;;;;;21.62;90.60;156924.97;5001203;28;20989;-82
2022/06/22 05:33:43;;;;;;;12.80;11.60;;;;;;;21.90;90.85;156995.47;5027292;28;20544;-82
2022/06/22 05:36:13;;;;;;;15.13;13.53;;;;;;;22.05;88.11;157036.00;5013924;28;20457;-82
2022/06/22 05:38:42;;;;;;;15.10;12.33;;;;;;;22.21;86.41;157077.75;5029036;28;20440;-82
2022/06/22 05:41:10;;;;;;;12.50;11.30;;;;;;;22.40;86.19;157127.38;5028914;28;20440;-82
2022/06/22 05:43:38;;;;;;;12.63;11.53;;;;;;;22.53;85.01;157160.03;5007795;28;20436;-80
2022/06/22 05:46:06;;;;;;;13.17;11.03;;;;;;;22.68;84.87;157199.31;5013333;28;20774;-80
2022/06/22 05:48:35;;;;;;;11.97;10.87;;;;;;;22.79;83.62;157228.06;5026242;28;20460;-79
2022/06/22 05:51:06;;;;;;;11.77;10.77;;;;;;;22.89;82.69;157252.84;5011989;28;20456;-79
2022/06/22 05:53:38;;;;;;;12.27;10.40;;;;;;;22.84;81.88;157239.78;5027077;28;20943;-80
2022/06/22 05:56:15;;;;;;;11.83;10.73;;;;;;;22.72;82.07;157208.41;5013421;28;20436;-79
2022/06/22 05:58:45;;;;;;;11.73;10.73;;;;;;;22.71;82.38;157207.16;5032575;28;20499;-79
2022/06/22 06:01:17;;;;;;;11.40;10.30;;;;;;;22.73;83.27;157211.03;5012572;28;20461;-80
2022/06/22 06:03:48;;;;;;;11.07;10.07;;;;;;;22.72;83.15;157208.41;5007896;28;20540;-80
2022/06/22 06:06:18;;;;;;;12.00;10.90;;;;;;;22.73;83.86;157212.34;5012642;28;20540;-79
2022/06/22 06:08:48;;;;;;;12.83;11.63;;;;;;;22.73;84.67;157212.34;5008862;28;20531;-79
2022/06/22 06:11:19;;;;;;;11.87;10.97;;;;;;;22.77;85.65;157221.53;5014704;28;20503;-80
2022/06/22 06:13:49;;;;;;;14.60;12.10;;;;;;;22.70;85.77;157204.50;5027389;28;20535;-79
2022/06/22 06:16:18;;;;;;;11.87;10.87;;;;;;;22.68;85.96;157199.31;5009607;28;20475;-79
2022/06/22 06:18:47;;;;;;;13.10;11.80;;;;;;;22.61;85.51;157180.94;5011662;28;20456;-80
2022/06/22 06:21:17;;;;;;;12.60;11.40;;;;;;;22.56;86.50;157166.59;5012415;28;20441;-80
2022/06/22 06:23:47;;;;;;;13.63;11.90;;;;;;;22.59;86.49;157174.41;5025366;28;20472;-79
2022/06/22 06:29:17;;;;;;;12.73;11.63;;;;;;;22.64;86.40;157188.81;5010452;28;20975;-79
2022/06/22 06:31:52;;;;;;;14.57;11.77;;;;;;;22.64;88.97;157188.81;5011605;28;20488;-79
2022/06/22 06:34:24;;;;;;;13.70;12.50;;;;;;;22.58;90.26;157171.81;5026479;28;20453;-80
2022/06/22 06:36:57;;;;;;;12.90;11.70;;;;;;;22.50;91.07;157152.22;5010545;28;20445;-79
2022/06/22 06:39:28;;;;;;;13.33;11.63;;;;;;;22.54;91.40;157162.66;5012104;28;20427;-80
2022/06/22 06:42:04;;;;;;;12.07;10.97;;;;;;;22.46;90.74;157141.75;5008741;28;20484;-80
2022/06/22 06:44:32;;;;;;;12.87;11.63;;;;;;;22.44;91.85;157136.53;5008330;28;20864;-80
2022/06/22 06:47:05;;;;;;;15.00;12.27;;;;;;;22.39;91.53;157124.81;5027069;28;21044;-80
2022/06/22 06:49:35;;;;;;;13.43;11.90;;;;;;;22.43;91.58;157135.22;5007620;28;20499;-80
2022/06/22 06:52:05;;;;;;;12.90;11.70;;;;;;;22.37;92.75;157119.53;5021235;28;20458;-80
2022/06/22 06:54:35;;;;;;;13.33;12.00;;;;;;;22.37;92.95;157118.28;5024930;28;20535;-79
2022/06/22 06:57:06;;;;;;;12.60;11.40;;;;;;;22.33;93.97;157107.78;5011877;28;20551;-80
2022/06/22 06:59:33;;;;;;;13.27;11.70;;;;;;;22.27;94.94;157093.44;5026803;28;20626;-79
2022/06/22 07:02:05;;;;;;;13.10;11.83;;;;;;;22.18;96.52;157068.63;5012134;28;20448;-80
2022/06/22 07:04:34;;;;;;;12.00;10.80;;;;;;;22.10;97.14;157047.72;5008614;28;20487;-80
2022/06/22 07:07:08;;;;;;;12.10;10.67;;;;;;;22.06;97.36;157037.25;5011193;28;20947;-80
2022/06/22 07:09:37;;;;;;;12.87;11.70;;;;;;;21.98;98.29;157017.69;5010084;28;20460;-80
2022/06/22 07:12:08;;;;;;;13.97;11.63;;;;;;;22.00;98.06;157021.63;5004988;28;20441;-80
2022/06/22 07:14:36;;;;;;;12.20;11.10;;;;;;;21.85;99.87;156985.00;4994388;28;20453;-80
2022/06/22 07:17:06;;;;;;;13.30;12.10;;;;;;;21.81;100.00;156973.25;5006257;28;20808;-80
2022/06/22 07:19:35;;;;;;;13.60;12.40;;;;;;;21.75;100.00;156958.91;5022115;28;20444;-80
2022/06/22 07:22:09;;;;;;;14.23;12.73;;;;;;;21.66;100.00;156935.38;5003456;28;20440;-80
2022/06/22 07:24:40;;;;;;;14.90;13.50;;;;;;;21.62;98.96;156923.63;4998373;28;20441;-80
2022/06/22 07:27:24;;;;;;;15.77;14.40;;;;;;;21.45;99.17;156880.53;5020696;28;20457;-80
2022/06/22 07:29:55;;;;;;;15.30;14.10;;;;;;;21.37;100.00;156858.34;5008029;28;20563;-80
2022/06/22 07:32:29;;;;;;;15.37;13.90;;;;;;;21.20;100.00;156816.63;4991601;28;20945;-81
2022/06/22 07:35:02;;;;;;;16.37;14.90;;;;;;;21.10;100.00;156789.22;5007965;28;20487;-78
2022/06/22 07:37:33;;;;;;;15.60;14.20;;;;;;;20.99;98.58;156760.44;5009705;28;20477;-80
2022/06/22 07:40:04;;;;;;;15.80;14.27;;;;;;;20.83;100.00;156720.00;5019947;28;20527;-82
2022/06/22 07:42:31;;;;;;;15.97;14.30;;;;;;;20.79;99.61;156708.22;5010981;28;20535;-80
2022/06/22 07:44:58;;;;;;;15.07;13.60;;;;;;;20.82;99.26;156716.06;5011506;28;20955;-80
2022/06/22 07:47:29;;;;;;;15.33;13.73;;;;;;;20.84;98.49;156721.28;5014203;28;20518;-80
2022/06/22 07:49:58;;;;;;;15.90;14.40;;;;;;;20.91;94.47;156740.88;5029691;28;20460;-80
2022/06/22 07:52:33;;;;;;;14.70;12.90;;;;;;;20.86;91.74;156726.53;5015080;28;20920;-80
2022/06/22 07:55:03;;;;;;;15.07;13.67;;;;;;;20.92;90.19;156743.47;5025512;28;20444;-81
2022/06/22 07:57:35;;;;;;;17.20;13.90;;;;;;;20.93;92.27;156746.09;5002581;28;20885;-80
2022/06/22 08:00:07;;;;;;;15.10;13.60;;;;;;;20.98;95.12;156757.81;5027715;28;20433;-80
2022/06/22 08:02:46;;;;;;;15.93;14.40;;;;;;;21.25;96.61;156828.34;5014277;28;20451;-80
2022/06/22 08:05:17;;;;;;;19.03;14.50;;;;;;;21.52;95.27;156897.53;5014641;28;20439;-81
2022/06/22 08:07:47;;;;;;;16.90;15.37;;;;;;;21.43;91.27;156874.03;5030014;28;20865;-80
2022/06/22 08:10:19;;;;;;;16.30;14.67;;;;;;;21.48;92.75;156887.06;5013295;28;20983;-80
2022/06/22 08:12:56;;;;;;;14.20;13.00;;;;;;;21.59;92.85;156915.81;5012021;28;20439;-74
2022/06/22 08:15:24;;;;;;;16.63;14.13;;;;;;;21.67;91.18;156936.69;5012253;28;20451;-75
2022/06/22 08:17:53;;;;;;;15.20;13.87;;;;;;;21.83;90.74;156979.78;5029082;28;20924;-76
2022/06/22 08:20:23;;;;;;;15.10;13.70;;;;;;;21.76;87.59;156961.47;5014296;28;20457;-75
2022/06/22 08:22:53;;;;;;;16.17;14.67;;;;;;;21.77;89.31;156962.78;5012082;28;20555;-76
2022/06/22 08:25:21;;;;;;;14.90;13.23;;;;;;;21.88;89.83;156990.25;5027794;28;20448;-75
2022/06/22 08:27:48;;;;;;;15.63;14.13;;;;;;;21.89;87.82;156992.88;5029518;28;20445;-75
2022/06/22 08:30:16;;;;;;;14.60;13.20;;;;;;;21.74;87.47;156956.25;5028496;28;20596;-74
2022/06/22 08:32:46;;;;;;;14.63;13.27;;;;;;;21.66;87.36;156935.38;5004773;28;21023;-75
2022/06/22 08:35:19;;;;;;;15.50;13.80;;;;;;;21.62;86.71;156924.97;5012453;28;20483;-75
2022/06/22 08:37:50;;;;;;;14.83;13.37;;;;;;;21.52;85.38;156898.84;5014528;28;20920;-76
2022/06/22 08:40:25;;;;;;;12.50;11.33;;;;;;;21.50;84.36;156892.34;5011577;28;20453;-75
2022/06/22 08:42:55;;;;;;;15.73;12.30;;;;;;;21.57;88.14;156910.59;5000229;28;20445;-75
2022/06/22 08:45:35;;;;;;;15.10;13.70;;;;;;;21.58;88.23;156913.16;5006185;28;20449;-75
2022/06/22 08:48:26;;;;;;;14.40;13.20;;;;;;;21.64;88.59;156928.84;5005098;28;20543;-76
2022/06/22 08:51:37;;;;;;;14.10;12.80;;;;;;;21.69;86.21;156943.22;5005799;28;20485;-75
2022/06/22 08:54:15;;;;;;;13.03;11.83;;;;;;;21.71;87.99;156948.44;4985728;28;20476;-75
2022/06/22 08:56:54;;;;;;;13.67;12.47;;;;;;;21.78;87.95;156965.41;5016832;28;20919;-75
2022/06/22 08:59:34;;;;;;;15.73;13.73;;;;;;;21.87;91.26;156987.69;5012003;28;20472;-75
2022/06/22 09:02:17;;;;;;;14.17;12.60;;;;;;;21.96;90.35;157011.16;5029073;28;20460;-75
2022/06/22 09:04:57;;;;;;;14.30;13.10;;;;;;;22.06;91.02;157037.25;5025257;28;21050;-75
2022/06/22 09:07:45;;;;;;;15.73;14.23;;;;;;;22.14;91.28;157058.16;5012112;28;20468;-75
2022/06/22 09:10:30;;;;;;;15.03;13.53;;;;;;;22.15;92.42;157060.78;5021527;28;20480;-75
2022/06/22 09:13:12;;;;;;;15.23;13.43;;;;;;;22.18;92.62;157068.63;5007255;28;20456;-75
2022/06/22 09:15:49;;;;;;;13.93;12.83;;;;;;;22.23;94.49;157081.69;5011279;28;20448;-75
2022/06/22 09:18:37;;;;;;;15.40;14.00;;;;;;;22.30;94.24;157099.94;5002419;28;20454;-75
2022/06/22 09:21:12;;;;;;;15.00;13.70;;;;;;;22.34;93.03;157110.44;4993712;28;20442;-75
2022/06/22 09:23:41;;;;;;;13.60;12.30;;;;;;;22.37;93.72;157119.53;5018940;28;20445;-74
2022/06/22 09:26:27;;;;;;;15.40;14.20;;;;;;;22.37;93.22;157118.28;5026577;28;20473;-74
2022/06/22 09:28:59;;;;;;;15.27;13.90;;;;;;;22.38;94.30;157122.16;5007099;28;20452;-76
2022/06/22 09:32:03;;;;;;;16.20;14.70;;;;;;;22.32;90.60;157106.47;5003865;28;20449;-76
2022/06/22 09:34:44;;;;;;;16.33;14.70;;;;;;;22.36;92.53;157115.63;5000028;28;20487;-76
2022/06/22 09:37:41;;;;;;;14.43;13.00;;;;;;;22.37;93.35;157119.53;5010126;28;20709;-76
2022/06/22 09:40:17;;;;;;;14.60;13.30;;;;;;;22.39;93.05;157123.47;4996190;28;20445;-76
2022/06/22 09:43:23;;;;;;;15.60;14.00;;;;;;;22.24;89.44;157084.31;5011960;28;20532;-75
2022/06/22 09:46:04;;;;;;;14.83;13.53;;;;;;;22.30;91.60;157099.94;5026297;28;20861;-76
2022/06/22 09:48:53;;;;;;;14.47;12.97;;;;;;;22.33;92.15;157107.78;5026992;28;20487;-75
2022/06/22 09:51:55;;;;;;;18.40;13.93;;;;;;;22.31;93.05;157102.59;5009652;28;20920;-76
2022/06/22 09:57:37;;;;;;;14.43;13.13;;;;;;;22.21;89.11;157076.47;5025142;28;20441;-76
2022/06/22 10:00:07;;;;;;;13.83;12.53;;;;;;;22.15;90.17;157060.78;5012429;28;20510;-76
2022/06/22 10:03:03;;;;;;;13.57;12.27;;;;;;;22.14;87.49;157058.16;5010797;28;20441;-76
2022/06/22 10:05:46;;;;;;;13.63;12.33;;;;;;;22.16;88.07;157064.69;5026366;28;20990;-76
2022/06/22 10:08:27;;;;;;;13.87;12.70;;;;;;;22.18;87.76;157068.63;5011004;28;20436;-76
2022/06/22 10:11:01;;;;;;;14.17;12.97;;;;;;;22.19;88.39;157071.22;5026098;28;20611;-76
2022/06/22 10:14:00;;;;;;;15.67;14.17;;;;;;;22.23;88.90;157081.69;5010266;28;20863;-76
2022/06/22 10:16:51;;;;;;;13.30;12.10;;;;;;;22.25;90.08;157088.22;4972859;28;20493;-76
2022/06/22 10:19:30;;;;;;;13.60;12.33;;;;;;;22.25;89.05;157088.22;5004079;28;20453;-76
2022/06/22 10:22:07;;;;;;;13.10;12.00;;;;;;;22.27;89.98;157092.13;5023765;28;20452;-76
2022/06/22 10:24:47;;;;;;;13.07;11.87;;;;;;;22.30;89.91;157101.25;5001204;28;20452;-76
2022/06/22 10:27:35;;;;;;;15.33;13.87;;;;;;;22.36;91.14;157116.97;5004542;28;20490;-76
2022/06/22 10:30:15;;;;;;;15.27;13.77;;;;;;;22.33;93.45;157107.78;4996166;28;20870;-76
2022/06/22 10:33:10;;;;;;;14.90;13.60;;;;;;;22.33;96.86;157107.78;5009154;28;20475;-77
2022/06/22 10:35:57;;;;;;;16.23;14.77;;;;;;;22.19;100.00;157071.22;4993593;28;20449;-77
2022/06/22 10:38:38;;;;;;;16.23;14.77;;;;;;;22.09;100.00;157046.41;5011068;28;20452;-76
2022/06/22 10:47:16;;;;;;;11.33;10.33;;;;;;;21.78;100.00;156966.75;5010849;28;20962;-77
2022/06/22 10:50:07;;;;;;;13.27;11.57;;;;;;;21.72;99.40;156949.75;5001486;28;20967;-77
2022/06/22 10:53:12;;;;;;;12.70;11.60;;;;;;;21.66;100.00;156934.06;5010787;28;20444;-76
2022/06/22 10:55:45;;;;;;;13.60;12.40;;;;;;;21.61;100.00;156921.00;5006488;28;20955;-75
2022/06/22 10:58:35;;;;;;;13.67;12.27;;;;;;;21.58;100.00;156914.47;4990739;28;20476;-77
2022/06/22 11:01:27;;;;;;;14.77;13.47;;;;;;;21.57;100.00;156910.59;4994826;28;20504;-76
2022/06/22 11:04:10;;;;;;;15.40;14.10;;;;;;;21.54;100.00;156902.75;5009742;28;20437;-74
2022/06/22 11:06:58;;;;;;;16.33;14.73;;;;;;;21.41;100.00;156868.81;5004915;28;20492;-76
2022/06/22 11:09:39;;;;;;;15.17;13.77;;;;;;;21.45;100.00;156879.22;5004545;28;20432;-75
2022/06/22 11:12:33;;;;;;;15.23;13.70;;;;;;;21.49;100.00;156891.03;5020201;28;20843;-74
2022/06/22 11:15:37;;;;;;;14.43;13.13;;;;;;;21.51;100.00;156896.22;5013260;28;20455;-76
2022/06/22 11:18:18;;;;;;;14.40;13.07;;;;;;;21.53;100.00;156901.44;5027254;28;20543;-76
2022/06/22 11:20:58;;;;;;;14.13;12.90;;;;;;;21.56;100.00;156909.28;5016319;28;20491;-76
2022/06/22 11:23:38;;;;;;;14.10;13.00;;;;;;;21.59;100.00;156917.13;5011586;28;20479;-76
2022/06/22 11:32:23;;;;;;;15.43;14.10;;;;;;;21.69;100.00;156941.91;5014229;28;20459;-75
2022/06/22 11:35:00;;;;;;;15.67;14.27;;;;;;;21.65;100.00;156932.78;5025301;28;20451;-76
2022/06/22 11:37:43;;;;;;;16.63;14.90;;;;;;;21.65;100.00;156932.78;5028460;28;20488;-76
2022/06/22 11:40:34;;;;;;;16.57;15.07;;;;;;;21.71;100.00;156948.44;5029791;28;20448;-76
2022/06/22 11:43:15;;;;;;;13.93;12.63;;;;;;;21.70;100.00;156945.84;5003269;28;20486;-76
2022/06/22 11:45:54;;;;;;;14.83;13.53;;;;;;;21.74;100.00;156954.94;5014694;28;20444;-75
2022/06/22 11:48:56;;;;;;;14.57;13.27;;;;;;;21.75;100.00;156958.91;5014763;28;20993;-75
2022/06/22 11:51:50;;;;;;;14.83;13.53;;;;;;;21.74;100.00;156956.25;5026853;28;20491;-75
2022/06/22 11:54:48;;;;;;;15.13;13.63;;;;;;;21.76;100.00;156961.47;5011870;28;20460;-76
2022/06/22 11:57:37;;;;;;;16.30;14.70;;;;;;;21.76;100.00;156960.22;4991338;28;20454;-75
2022/06/22 12:00:13;;;;;;;15.40;13.80;;;;;;;21.80;100.00;156971.94;5014709;28;20445;-76
2022/06/22 12:02:58;;;;;;;13.47;12.17;;;;;;;21.92;100.00;157000.72;5013159;28;20520;-76
2022/06/22 12:05:38;;;;;;;16.23;13.40;;;;;;;21.97;100.00;157013.78;5026758;28;20452;-75
2022/06/22 12:08:32;;;;;;;13.33;12.17;;;;;;;22.02;100.00;157026.84;5012401;28;20622;-75